Tropical Cyclones
[Index]
Main Index Home Page Stock Weather Photos Extreme Storms Discussion Storm News and Storm Chasing Reports Tropical Cyclones / Hurricanes / Typhoons Weather Data and Links Wild Fires / Bushfires Weather Observation Techniques Weather Picture Catalogue Tornado Pictures and Reports Stock Video Footage and DVDs for sale
Season 1979-1980 Tropical Cyclone FRED Track Map
Season 1979-1980 Summaries: [BoM-AU] [JTWC-AU] [JTWC-SIO] [JTWC-SPAC] [JTWC-SH]
<<- Previous TC | JTWC 1979-1980 Season | Next TC ->>

click for intensity scale information  Lat/long Grid: Show Hide

 Date Labels: Show Hide

Joint Typhoon Warning Centre Cyclone Data

Name: FRED

20 Feb 1980 12:00 UTC to 28 Feb 1980 00:00 UTC

    date/time    lat    long     hPa   cat  kts
1980-02-20 12   12.0   103.5            1     40          
1980-02-20 18   12.4   103.6            1     40          
1980-02-21 00   12.7   103.6            1     45          
1980-02-21 06   13.0   103.4            1     50          
1980-02-21 12   13.3   103.1            2     55          
1980-02-21 18   13.6   102.4            2     70          
1980-02-22 00   13.7   101.8            3     80          
1980-02-22 06   13.6   101.5            3     85          
1980-02-22 12   13.5   101.2            3     85          
1980-02-22 18   13.4   100.8            3     85          
1980-02-23 00   13.5   100.2            3     85          
1980-02-23 06   13.7    99.4            3     85          
1980-02-23 12   14.0    98.5            3     90          
1980-02-23 18   14.2    97.4            3     90          
1980-02-24 00   14.5    96.2            3     90          
1980-02-24 06   14.9    94.7            3     90          
1980-02-24 12   15.5    93.2            3     85          
1980-02-24 18   16.2    92.1            3     90          
1980-02-25 00   16.8    91.0            3     95          
1980-02-25 06   17.4    90.0            3     90          
1980-02-25 12   18.0    89.0            3     80          
1980-02-25 18   18.6    87.8            2     70          
1980-02-26 00   19.3    86.8            2     60          
1980-02-26 06   20.4    86.8            2     55          
1980-02-26 12   21.5    87.0            2     55          
1980-02-26 18   21.6    87.0            1     45          
1980-02-27 00   21.7    87.0                  35          
1980-02-27 06   22.8    86.8                  30          
1980-02-27 12   24.0    86.5                  25          
1980-02-27 18   25.3    87.0                              
1980-02-28 00   26.7    88.1                              
Winds are 1-min average.

Tropical cyclone tracks developed by Michael Bath using data from the Joint Typhoon Warning Centre Best Tracks and Google Maps.


[Australian Severe Weather index] [Copyright Notice] [Email Contacts] [Search This Site] [Privacy Policy]
Document: tropical_cyclone_fred.htm Updated: 18 September 2016